createdAt,value
2022-12-22T00:02:47.081Z,3.63
2022-12-22T00:05:34.579Z,2.95
2022-12-22T00:08:19.945Z,3.38
2022-12-22T00:11:05.760Z,3.80
2022-12-22T00:13:51.892Z,2.90
2022-12-22T00:16:37.702Z,3.20
2022-12-22T00:19:31.027Z,2.92
2022-12-22T00:22:20.467Z,3.80
2022-12-22T00:25:06.043Z,2.13
2022-12-22T00:27:51.463Z,3.17
2022-12-22T00:30:45.374Z,2.25
2022-12-22T00:33:33.503Z,2.42
2022-12-22T00:36:20.949Z,2.80
2022-12-22T00:39:06.318Z,6.05
2022-12-22T00:41:51.914Z,2.60
2022-12-22T00:44:37.425Z,3.22
2022-12-22T00:47:22.774Z,2.70
2022-12-22T00:50:08.742Z,2.95
2022-12-22T00:52:55.352Z,4.57
2022-12-22T00:55:47.663Z,2.97
2022-12-22T00:58:36.054Z,2.90
2022-12-22T01:01:21.547Z,4.78
2022-12-22T01:04:06.603Z,2.80
2022-12-22T01:06:54.390Z,2.10
2022-12-22T01:09:41.589Z,2.70
2022-12-22T01:12:32.566Z,2.63
2022-12-22T01:15:17.971Z,2.33
2022-12-22T01:18:03.479Z,4.63
2022-12-22T01:20:49.767Z,3.50
2022-12-22T01:23:35.180Z,2.85
2022-12-22T01:26:21.926Z,2.70
2022-12-22T01:29:07.350Z,4.05
2022-12-22T01:31:52.742Z,3.20
2022-12-22T01:34:38.154Z,2.88
2022-12-22T01:37:23.482Z,3.95
2022-12-22T01:40:08.996Z,1.92
2022-12-22T01:42:55.734Z,3.20
2022-12-22T01:45:42.467Z,2.90
2022-12-22T01:48:30.955Z,2.38
2022-12-22T01:51:18.405Z,4.15
2022-12-22T01:54:03.731Z,2.17
2022-12-22T01:56:50.675Z,3.72
2022-12-22T01:59:38.303Z,5.15
2022-12-22T02:02:24.920Z,2.83
2022-12-22T02:05:11.639Z,3.25
2022-12-22T02:08:13.938Z,3.75
2022-12-22T02:11:17.520Z,3.47
2022-12-22T02:14:15.632Z,2.53
2022-12-22T02:17:07.895Z,2.67
2022-12-22T02:20:13.561Z,2.72
2022-12-22T02:23:10.697Z,3.33
2022-12-22T02:26:03.105Z,3.25
2022-12-22T02:28:51.970Z,3.72
2022-12-22T02:31:37.391Z,3.97
2022-12-22T02:34:22.499Z,1.98
2022-12-22T02:37:14.991Z,2.67
2022-12-22T02:40:12.100Z,2.60
2022-12-22T02:43:03.413Z,2.35
2022-12-22T02:45:56.798Z,3.33
2022-12-22T02:48:49.848Z,3.30
2022-12-22T02:51:37.761Z,3.33
2022-12-22T02:54:25.623Z,3.78
2022-12-22T02:57:11.175Z,3.90
2022-12-22T02:59:56.512Z,5.03
2022-12-22T03:02:43.461Z,7.53
2022-12-22T03:05:29.023Z,2.40
2022-12-22T03:08:14.457Z,2.95
2022-12-22T03:10:59.833Z,3.10
2022-12-22T03:13:45.170Z,3.00
2022-12-22T03:16:30.720Z,2.78
2022-12-22T03:19:17.523Z,2.90
2022-12-22T03:22:02.995Z,3.22
2022-12-22T03:24:48.431Z,4.13
2022-12-22T03:27:16.092Z,2.65
2022-12-22T03:29:43.817Z,2.65
2022-12-22T03:32:11.506Z,3.60
2022-12-22T03:34:40.540Z,2.97
2022-12-22T03:37:08.264Z,3.83
2022-12-22T03:39:36.554Z,3.05
2022-12-22T03:42:21.807Z,2.72
2022-12-22T03:45:07.308Z,3.50
2022-12-22T03:47:35.024Z,4.38
2022-12-22T03:50:04.243Z,2.83
2022-12-22T03:52:32.009Z,3.20
2022-12-22T03:54:59.695Z,3.63
2022-12-22T03:57:27.382Z,3.15
2022-12-22T03:59:55.061Z,2.88
2022-12-22T04:02:22.936Z,2.95
2022-12-22T04:04:50.731Z,2.75
2022-12-22T04:07:19.827Z,3.13
2022-12-22T04:10:01.493Z,3.13
2022-12-22T04:12:46.733Z,4.57
2022-12-22T04:15:14.506Z,3.97
2022-12-22T04:17:42.221Z,3.67
2022-12-22T04:20:11.073Z,5.20
2022-12-22T04:22:40.165Z,3.63
2022-12-22T04:25:09.112Z,3.05
2022-12-22T04:27:36.802Z,3.83
2022-12-22T04:30:05.091Z,3.80
2022-12-22T04:32:33.034Z,3.00
2022-12-22T04:35:00.703Z,2.90
2022-12-22T04:37:28.425Z,3.30
2022-12-22T04:39:58.243Z,3.63
2022-12-22T04:42:26.180Z,2.85
2022-12-22T04:44:53.897Z,3.70
2022-12-22T04:47:21.635Z,2.42
2022-12-22T04:49:49.329Z,2.97
2022-12-22T04:52:17.019Z,2.85
2022-12-22T04:54:44.737Z,2.05
2022-12-22T04:57:13.832Z,2.45
2022-12-22T04:59:41.520Z,4.28
2022-12-22T05:02:09.321Z,2.35
2022-12-22T05:04:37.188Z,2.10
2022-12-22T05:07:05.257Z,2.65
2022-12-22T05:09:32.908Z,2.08
2022-12-22T05:12:00.825Z,2.80
2022-12-22T05:14:29.872Z,1.80
2022-12-22T05:16:57.714Z,1.75
2022-12-22T05:19:30.549Z,2.03
2022-12-22T05:21:58.666Z,2.20
2022-12-22T05:24:26.357Z,2.38
2022-12-22T05:26:54.161Z,1.98
2022-12-22T05:29:21.891Z,2.35
2022-12-22T05:31:50.990Z,2.38
2022-12-22T05:34:18.729Z,2.08
2022-12-22T05:36:46.446Z,2.03
2022-12-22T05:39:14.200Z,2.97
2022-12-22T05:41:41.902Z,3.05
2022-12-22T05:44:09.701Z,4.05
2022-12-22T05:46:37.463Z,4.40
2022-12-22T05:49:06.612Z,4.00
2022-12-22T05:51:34.325Z,4.07
2022-12-22T05:54:02.070Z,5.20
2022-12-22T05:56:29.856Z,3.83
2022-12-22T05:58:57.633Z,4.45
2022-12-22T06:01:25.406Z,7.75
2022-12-22T06:03:59.501Z,6.18
2022-12-22T06:06:29.477Z,7.05
2022-12-22T06:08:57.240Z,7.43
2022-12-22T06:11:24.926Z,7.35
2022-12-22T06:13:52.634Z,7.50
2022-12-22T06:16:20.518Z,6.68
2022-12-22T06:18:48.363Z,7.60
2022-12-22T06:21:16.063Z,8.65
2022-12-22T06:23:45.258Z,9.43
2022-12-22T06:26:13.109Z,8.27
2022-12-22T06:28:40.834Z,9.88
2022-12-22T06:31:08.594Z,10.82
2022-12-22T06:33:36.373Z,14.15
2022-12-22T06:36:06.448Z,12.68
2022-12-22T06:38:34.274Z,13.13
2022-12-22T06:41:03.911Z,13.85
2022-12-22T06:43:30.928Z,13.63
2022-12-22T06:45:58.717Z,13.93
2022-12-22T06:48:26.454Z,15.32
2022-12-22T06:50:58.556Z,17.67
2022-12-22T06:53:26.351Z,16.40
2022-12-22T06:55:54.076Z,18.10
2022-12-22T06:58:23.173Z,17.80
2022-12-22T07:00:51.326Z,20.95
2022-12-22T07:03:19.275Z,17.77
2022-12-22T07:05:47.163Z,22.95
2022-12-22T07:08:14.883Z,22.42
2022-12-22T07:11:00.928Z,22.60
2022-12-22T07:13:32.728Z,23.95
2022-12-22T07:16:01.835Z,22.08
2022-12-22T07:18:31.502Z,21.38
2022-12-22T07:21:00.398Z,23.15
2022-12-22T07:23:28.208Z,21.58
2022-12-22T07:25:55.948Z,19.00
2022-12-22T07:28:23.738Z,22.27
2022-12-22T07:30:53.778Z,20.10
2022-12-22T07:33:21.707Z,22.75
2022-12-22T07:35:49.397Z,21.10
2022-12-22T07:38:17.089Z,20.10
2022-12-22T07:40:49.285Z,20.63
2022-12-22T07:43:18.402Z,20.77
2022-12-22T07:45:46.256Z,22.52
2022-12-22T07:48:29.475Z,21.13
2022-12-22T07:51:04.265Z,18.05
2022-12-22T07:53:32.139Z,18.25
2022-12-22T07:56:03.823Z,18.08
2022-12-22T07:58:31.780Z,18.48
2022-12-22T08:01:00.564Z,22.60
2022-12-22T08:03:29.713Z,19.85
2022-12-22T08:05:57.436Z,19.02
2022-12-22T08:08:25.229Z,21.35
2022-12-22T08:10:52.973Z,23.38
2022-12-22T08:13:21.295Z,24.58
2022-12-22T08:15:49.127Z,23.77
2022-12-22T08:18:16.831Z,23.90
2022-12-22T08:20:51.637Z,23.27
2022-12-22T08:23:19.424Z,26.50
2022-12-22T08:25:50.033Z,25.65
2022-12-22T08:28:18.404Z,27.95
2022-12-22T08:30:47.089Z,28.15
2022-12-22T08:33:14.993Z,24.95
2022-12-22T08:35:43.499Z,27.38
2022-12-22T08:38:13.919Z,25.85
2022-12-22T08:40:44.521Z,26.52
2022-12-22T08:43:13.389Z,28.98
2022-12-22T08:45:42.886Z,27.20
2022-12-22T08:48:11.487Z,28.58
2022-12-22T08:50:39.258Z,28.65
2022-12-22T08:53:18.730Z,27.60
2022-12-22T08:55:57.838Z,25.70
2022-12-22T08:58:25.559Z,27.83
2022-12-22T09:00:53.396Z,25.20
2022-12-22T09:03:21.146Z,29.17
2022-12-22T09:05:48.851Z,24.55
2022-12-22T09:08:16.526Z,27.73
2022-12-22T09:10:44.825Z,25.17
2022-12-22T09:13:13.915Z,25.35
2022-12-22T09:15:41.695Z,25.38
2022-12-22T09:18:09.468Z,24.20
2022-12-22T09:20:37.251Z,25.00
2022-12-22T09:23:04.943Z,23.52
2022-12-22T09:25:35.258Z,24.77
2022-12-22T09:28:02.974Z,25.48
2022-12-22T09:30:32.025Z,23.17
2022-12-22T09:32:59.759Z,22.90
2022-12-22T09:35:27.457Z,26.15
2022-12-22T09:37:55.147Z,22.48
2022-12-22T09:40:24.715Z,22.73
2022-12-22T09:42:52.474Z,23.33
2022-12-22T09:45:21.023Z,24.60
2022-12-22T09:47:54.389Z,30.45
2022-12-22T09:50:24.500Z,28.38
2022-12-22T09:52:55.336Z,30.63
2022-12-22T09:55:40.429Z,30.75
2022-12-22T09:58:25.705Z,27.17
2022-12-22T10:01:01.737Z,26.75
2022-12-22T10:03:38.473Z,27.90
2022-12-22T10:06:12.233Z,28.08
2022-12-22T10:08:41.737Z,26.67
2022-12-22T10:11:14.813Z,25.55
2022-12-22T10:13:42.928Z,26.88
2022-12-22T10:16:19.310Z,27.77
2022-12-22T10:18:59.695Z,25.10
2022-12-22T10:21:29.820Z,27.10
2022-12-22T10:23:57.647Z,25.67
2022-12-22T10:26:30.250Z,23.77
2022-12-22T10:29:02.353Z,26.35
2022-12-22T10:31:32.126Z,22.08
2022-12-22T10:34:13.930Z,25.83
2022-12-22T10:36:43.867Z,26.27
2022-12-22T10:39:12.248Z,23.33
2022-12-22T10:41:43.355Z,21.95
2022-12-22T10:44:19.836Z,22.50
2022-12-22T10:46:50.115Z,20.48
2022-12-22T10:49:22.782Z,23.60
2022-12-22T10:51:53.441Z,22.13
2022-12-22T10:54:44.669Z,22.42
2022-12-22T10:57:30.782Z,26.08
2022-12-22T11:00:00.147Z,22.58
2022-12-22T11:02:31.788Z,23.65
2022-12-22T11:05:06.876Z,23.40
2022-12-22T11:07:37.589Z,20.52
2022-12-22T11:10:18.452Z,22.67
2022-12-22T11:13:15.360Z,20.30
2022-12-22T11:15:49.564Z,17.23
2022-12-22T11:18:32.947Z,19.20
2022-12-22T11:21:09.534Z,21.45
2022-12-22T11:23:40.387Z,20.95
2022-12-22T11:26:17.190Z,20.45
2022-12-22T11:31:32.221Z,21.10
2022-12-22T11:34:14.473Z,23.67
2022-12-22T11:37:02.830Z,23.73
2022-12-22T11:39:41.387Z,24.00
2022-12-22T11:42:25.585Z,27.98
2022-12-22T11:45:03.971Z,21.33
2022-12-22T11:47:40.167Z,23.08
2022-12-22T11:50:58.326Z,24.98
2022-12-22T11:53:38.637Z,23.48
2022-12-22T11:56:21.048Z,19.55
2022-12-22T11:59:04.843Z,21.40
2022-12-22T12:01:45.854Z,19.42
2022-12-22T12:04:41.583Z,28.00
2022-12-22T12:07:28.354Z,24.42
2022-12-22T12:10:07.986Z,20.98
2022-12-22T12:12:46.945Z,22.23
2022-12-22T12:15:27.634Z,18.70
2022-12-22T12:18:33.182Z,19.88
2022-12-22T12:21:18.351Z,19.70
2022-12-22T12:24:14.899Z,17.20
2022-12-22T12:26:54.132Z,16.83
2022-12-22T12:29:25.405Z,16.58
2022-12-22T12:31:59.526Z,17.98
2022-12-22T12:34:31.020Z,16.23
2022-12-22T12:37:04.496Z,17.50
2022-12-22T12:39:40.945Z,14.90
2022-12-22T12:42:30.883Z,18.52
2022-12-22T12:44:59.552Z,21.05
2022-12-22T12:47:31.089Z,18.48
2022-12-22T12:50:27.157Z,19.90
2022-12-22T12:53:07.419Z,16.85
2022-12-22T12:55:52.939Z,18.90
2022-12-22T12:58:50.436Z,21.52
2022-12-22T13:01:55.997Z,14.77
2022-12-22T13:05:11.667Z,13.88
2022-12-22T13:08:16.852Z,14.57
2022-12-22T13:10:50.553Z,14.88
2022-12-22T13:13:47.458Z,17.90
2022-12-22T13:16:35.504Z,17.93
2022-12-22T13:19:21.204Z,14.88
2022-12-22T13:21:54.424Z,18.02
2022-12-22T13:24:27.515Z,17.38
2022-12-22T13:27:01.564Z,18.17
2022-12-22T13:29:36.222Z,15.65
2022-12-22T13:32:20.338Z,16.52
2022-12-22T13:37:43.957Z,13.48
2022-12-22T13:40:15.828Z,15.38
2022-12-22T13:42:46.956Z,14.65
2022-12-22T13:45:21.367Z,11.07
2022-12-22T13:47:51.004Z,13.98
2022-12-22T13:50:21.804Z,12.57
2022-12-22T13:52:50.968Z,16.33
2022-12-22T13:55:22.970Z,12.13
2022-12-22T13:57:58.024Z,14.32
2022-12-22T14:00:29.675Z,12.32
2022-12-22T14:02:59.144Z,14.73
2022-12-22T14:05:32.385Z,10.82
2022-12-22T14:08:05.503Z,12.20
2022-12-22T14:10:36.498Z,12.00
2022-12-22T14:13:08.767Z,11.82
2022-12-22T14:15:36.562Z,9.05
2022-12-22T14:18:05.893Z,10.02
2022-12-22T14:20:36.568Z,9.10
2022-12-22T14:23:09.077Z,10.02
2022-12-22T14:25:39.107Z,8.20
2022-12-22T14:28:12.521Z,8.90
2022-12-22T14:30:44.390Z,9.02
2022-12-22T14:33:18.811Z,10.93
2022-12-22T14:35:46.595Z,8.43
2022-12-22T14:38:27.632Z,7.75
2022-12-22T14:40:57.734Z,8.60
2022-12-22T14:43:32.080Z,7.30
2022-12-22T14:46:07.716Z,9.57
2022-12-22T14:48:41.128Z,7.43
2022-12-22T14:51:08.963Z,7.65
2022-12-22T14:53:44.648Z,8.80
2022-12-22T14:56:14.155Z,12.98
2022-12-22T14:58:44.439Z,10.07
2022-12-22T15:01:19.859Z,8.63
2022-12-22T15:04:00.509Z,7.18
2022-12-22T15:06:35.930Z,7.32
2022-12-22T15:10:12.378Z,10.65
2022-12-22T15:12:18.057Z,10.52
2022-12-22T15:14:48.833Z,14.23
2022-12-22T15:17:25.515Z,7.00
2022-12-22T15:19:58.496Z,8.13
2022-12-22T15:22:26.223Z,7.57
2022-12-22T15:24:53.936Z,7.50
2022-12-22T15:27:21.717Z,9.18
2022-12-22T15:29:49.449Z,8.82
2022-12-22T15:32:17.192Z,7.22
2022-12-22T15:34:45.055Z,8.48
2022-12-22T15:37:14.311Z,11.63
2022-12-22T15:39:42.147Z,10.20
2022-12-22T15:42:09.867Z,7.65
2022-12-22T15:44:39.223Z,7.80
2022-12-22T15:47:09.386Z,7.70
2022-12-22T15:49:37.256Z,7.95
2022-12-22T15:52:06.622Z,4.95
2022-12-22T15:54:37.285Z,6.75
2022-12-22T15:57:05.323Z,11.10
2022-12-22T15:59:33.104Z,6.05
2022-12-22T16:02:02.064Z,8.80
2022-12-22T16:04:30.471Z,5.22
2022-12-22T16:07:00.154Z,5.82
2022-12-22T16:09:32.628Z,10.02
2022-12-22T16:12:01.763Z,7.00
2022-12-22T16:14:35.263Z,9.13
2022-12-22T16:17:06.944Z,5.85
2022-12-22T16:19:34.751Z,7.07
2022-12-22T16:22:02.543Z,8.98
2022-12-22T16:24:34.887Z,7.78
2022-12-22T16:27:04.484Z,8.52
2022-12-22T16:29:32.331Z,11.10
2022-12-22T16:32:17.849Z,9.25
2022-12-22T16:34:46.238Z,11.10
2022-12-22T16:37:13.971Z,9.10
2022-12-22T16:39:41.707Z,11.80
2022-12-22T16:44:59.566Z,9.07
2022-12-22T16:47:29.470Z,11.18
2022-12-22T16:49:57.159Z,12.05
2022-12-22T16:52:30.789Z,11.23
2022-12-22T16:54:58.722Z,10.35
2022-12-22T16:57:27.767Z,16.67
2022-12-22T16:59:55.504Z,14.27
2022-12-22T17:02:27.606Z,11.30
2022-12-22T17:04:58.217Z,10.07
2022-12-22T17:07:25.940Z,9.23
2022-12-22T17:09:57.671Z,12.05
2022-12-22T17:12:29.263Z,14.10
2022-12-22T17:14:58.356Z,16.70
2022-12-22T17:17:32.966Z,14.00
2022-12-22T17:20:03.416Z,12.65
2022-12-22T17:22:34.212Z,13.05
2022-12-22T17:25:04.903Z,13.10
2022-12-22T17:27:35.595Z,10.82
2022-12-22T17:30:04.774Z,10.82
2022-12-22T17:32:32.582Z,11.90
2022-12-22T17:35:00.476Z,9.68
2022-12-22T17:37:28.191Z,13.70
2022-12-22T17:40:01.163Z,13.13
2022-12-22T17:42:31.340Z,20.77
2022-12-22T17:45:00.517Z,11.30
2022-12-22T17:47:33.324Z,10.50
2022-12-22T17:50:03.862Z,16.83
2022-12-22T17:52:31.717Z,10.15
2022-12-22T17:54:59.758Z,12.93
2022-12-22T17:57:31.095Z,13.50
2022-12-22T18:00:00.631Z,13.07
2022-12-22T18:02:29.791Z,17.08
2022-12-22T18:04:57.631Z,16.90
2022-12-22T18:07:26.115Z,12.05
2022-12-22T18:09:58.635Z,11.32
2022-12-22T18:12:26.622Z,15.63
2022-12-22T18:14:54.358Z,17.80
2022-12-22T18:17:28.614Z,12.18
2022-12-22T18:20:01.033Z,13.85
2022-12-22T18:22:30.591Z,11.75
2022-12-22T18:24:58.855Z,18.30
2022-12-22T18:27:26.615Z,13.82
2022-12-22T18:29:54.387Z,11.10
2022-12-22T18:32:27.830Z,15.65
2022-12-22T18:34:55.833Z,17.73
2022-12-22T18:37:23.597Z,14.90
2022-12-22T18:39:51.409Z,22.15
2022-12-22T18:42:21.828Z,16.13
2022-12-22T18:44:51.198Z,18.17
2022-12-22T18:47:19.299Z,15.00
2022-12-22T18:49:48.536Z,16.10
2022-12-22T18:52:19.283Z,17.63
2022-12-22T18:54:47.400Z,17.80
2022-12-22T18:57:17.018Z,13.85
2022-12-22T18:59:45.542Z,10.95
2022-12-22T19:02:21.911Z,13.77
2022-12-22T19:04:51.917Z,13.65
2022-12-22T19:07:22.283Z,19.08
2022-12-22T19:09:50.576Z,20.45
2022-12-22T19:12:20.707Z,20.67
2022-12-22T19:14:52.747Z,16.40
2022-12-22T19:17:23.317Z,15.38
2022-12-22T19:19:52.378Z,19.85
2022-12-22T19:22:20.660Z,13.93
2022-12-22T19:24:49.039Z,20.98
2022-12-22T19:27:18.355Z,18.65
2022-12-22T19:29:46.631Z,16.88
2022-12-22T19:32:24.078Z,18.65
2022-12-22T19:34:53.277Z,23.25
2022-12-22T19:37:21.064Z,18.63
2022-12-22T19:39:49.020Z,20.08
2022-12-22T19:42:20.565Z,22.30
2022-12-22T19:44:48.691Z,16.10
2022-12-22T19:47:19.151Z,23.00
2022-12-22T19:49:48.227Z,17.42
2022-12-22T19:52:17.513Z,22.50
2022-12-22T19:54:45.274Z,18.40
2022-12-22T19:57:19.217Z,21.83
2022-12-22T19:59:49.726Z,20.13
2022-12-22T20:02:28.454Z,17.50
2022-12-22T20:04:57.628Z,16.75
2022-12-22T20:07:29.435Z,18.55
2022-12-22T20:09:57.124Z,22.67
2022-12-22T20:12:29.716Z,26.30
2022-12-22T20:14:57.745Z,18.67
2022-12-22T20:17:25.572Z,19.38
2022-12-22T20:19:53.254Z,19.23
2022-12-22T20:22:23.920Z,15.63
2022-12-22T20:24:54.543Z,17.17
2022-12-22T20:27:24.348Z,17.88
2022-12-22T20:29:52.103Z,16.55
2022-12-22T20:32:25.582Z,16.45
2022-12-22T20:34:55.526Z,21.27
2022-12-22T20:37:23.328Z,15.65
2022-12-22T20:39:51.016Z,22.17
2022-12-22T20:42:22.330Z,18.55
2022-12-22T20:45:03.406Z,16.02
2022-12-22T20:47:32.395Z,14.20
2022-12-22T20:50:00.639Z,19.73
2022-12-22T20:52:28.652Z,20.17
2022-12-22T20:54:56.339Z,16.35
2022-12-22T20:57:26.219Z,18.75
2022-12-22T20:59:56.354Z,21.42
2022-12-22T21:02:28.339Z,16.55
2022-12-22T21:04:56.404Z,16.40
2022-12-22T21:07:24.343Z,16.67
2022-12-22T21:09:52.047Z,14.70
2022-12-22T21:12:19.786Z,14.88
2022-12-22T21:14:49.461Z,14.32
2022-12-22T21:17:17.991Z,13.95
2022-12-22T21:19:46.338Z,12.10
2022-12-22T21:22:14.241Z,14.68
2022-12-22T21:24:43.824Z,13.73
2022-12-22T21:27:19.029Z,14.02
2022-12-22T21:29:48.614Z,14.40
2022-12-22T21:32:16.926Z,13.85
2022-12-22T21:34:44.597Z,14.18
2022-12-22T21:37:17.302Z,26.48
2022-12-22T21:39:45.575Z,11.55
2022-12-22T21:42:15.995Z,16.17
2022-12-22T21:44:44.653Z,15.05
2022-12-22T21:47:17.556Z,15.98
2022-12-22T21:49:45.343Z,21.10
2022-12-22T21:52:13.076Z,15.40
2022-12-22T21:54:40.809Z,13.52
2022-12-22T21:57:14.773Z,16.60
2022-12-22T21:59:42.549Z,10.95
2022-12-22T22:02:16.886Z,18.60
2022-12-22T22:04:50.175Z,16.05
2022-12-22T22:07:22.126Z,14.77
2022-12-22T22:09:49.835Z,16.60
2022-12-22T22:12:37.025Z,10.35
2022-12-22T22:15:05.776Z,13.20
2022-12-22T22:17:35.053Z,17.67
2022-12-22T22:20:02.916Z,11.23
2022-12-22T22:22:30.627Z,17.65
2022-12-22T22:24:58.348Z,12.85
2022-12-22T22:27:26.052Z,12.38
2022-12-22T22:29:53.779Z,9.43
2022-12-22T22:32:21.523Z,16.80
2022-12-22T22:34:50.628Z,11.82
2022-12-22T22:37:18.287Z,14.13
2022-12-22T22:39:46.010Z,13.57
2022-12-22T22:42:13.817Z,12.30
2022-12-22T22:44:41.544Z,11.98
2022-12-22T22:47:09.343Z,13.57
2022-12-22T22:49:37.061Z,9.82
2022-12-22T22:52:06.394Z,10.63
2022-12-22T22:54:34.115Z,15.60
2022-12-22T22:57:01.913Z,11.30
2022-12-22T22:59:29.632Z,10.82
2022-12-22T23:01:57.392Z,18.50
2022-12-22T23:04:25.225Z,14.98
2022-12-22T23:06:53.065Z,15.85
2022-12-22T23:09:22.233Z,12.32
2022-12-22T23:11:52.503Z,12.82
2022-12-22T23:14:20.609Z,13.73
2022-12-22T23:16:48.815Z,12.38
2022-12-22T23:19:17.080Z,14.13
2022-12-22T23:21:45.083Z,14.68
2022-12-22T23:24:13.339Z,15.18
2022-12-22T23:26:42.448Z,14.93
2022-12-22T23:29:10.205Z,14.07
2022-12-22T23:31:38.050Z,15.20
2022-12-22T23:34:05.799Z,13.88
2022-12-22T23:36:34.035Z,14.25
2022-12-22T23:39:01.733Z,12.50
2022-12-22T23:41:29.653Z,12.40
2022-12-22T23:43:58.745Z,11.85
2022-12-22T23:46:26.523Z,16.23
2022-12-22T23:48:56.825Z,13.10
2022-12-22T23:51:26.663Z,11.70
2022-12-22T23:53:54.771Z,10.18
2022-12-22T23:56:22.473Z,9.52
2022-12-22T23:58:54.599Z,10.48
